createdAt,value
2023-02-01T00:01:29.341Z,-0.54
2023-02-01T00:03:57.648Z,-0.54
2023-02-01T00:06:26.763Z,-0.50
2023-02-01T00:08:55.580Z,-0.48
2023-02-01T00:11:24.263Z,-0.46
2023-02-01T00:13:52.835Z,-0.43
2023-02-01T00:16:22.879Z,-0.46
2023-02-01T00:18:52.407Z,-0.48
2023-02-01T00:21:21.473Z,-0.50
2023-02-01T00:23:49.942Z,-0.52
2023-02-01T00:26:26.739Z,-0.49
2023-02-01T00:28:55.178Z,-0.45
2023-02-01T00:31:23.622Z,-0.44
2023-02-01T00:33:52.070Z,-0.40
2023-02-01T00:36:20.452Z,-0.32
2023-02-01T00:38:49.136Z,-0.29
2023-02-01T00:41:20.356Z,-0.29
2023-02-01T00:43:48.999Z,-0.33
2023-02-01T00:46:18.331Z,-0.36
2023-02-01T00:48:46.768Z,-0.36
2023-02-01T00:51:16.763Z,-0.35
2023-02-01T00:53:45.175Z,-0.34
2023-02-01T00:56:13.813Z,-0.35
2023-02-01T00:58:45.312Z,-0.38
2023-02-01T01:01:15.141Z,-0.34
2023-02-01T01:03:45.497Z,-0.27
2023-02-01T01:06:16.484Z,-0.22
2023-02-01T01:08:44.984Z,-0.20
2023-02-01T01:11:16.790Z,-0.25
2023-02-01T01:13:47.466Z,-0.35
2023-02-01T01:16:15.843Z,-0.46
2023-02-01T01:18:44.301Z,-0.55
2023-02-01T01:21:13.925Z,-0.63
2023-02-01T01:23:42.360Z,-0.67
2023-02-01T01:26:13.897Z,-0.69
2023-02-01T01:28:42.339Z,-0.70
2023-02-01T01:31:11.847Z,-0.66
2023-02-01T01:33:40.357Z,-0.63
2023-02-01T01:36:12.997Z,-0.60
2023-02-01T01:38:41.674Z,-0.56
2023-02-01T01:41:13.100Z,-0.50
2023-02-01T01:44:03.372Z,-0.46
2023-02-01T01:46:33.949Z,-0.41
2023-02-01T01:49:09.166Z,-0.35
2023-02-01T01:51:40.445Z,-0.31
2023-02-01T01:54:18.513Z,-0.26
2023-02-01T01:56:52.338Z,-0.21
2023-02-01T01:59:22.249Z,-0.15
2023-02-01T02:01:50.665Z,-0.10
2023-02-01T02:04:22.191Z,-0.04
2023-02-01T02:06:57.734Z,0.00
2023-02-01T02:09:26.207Z,0.04
2023-02-01T02:11:54.647Z,0.08
2023-02-01T02:14:23.886Z,0.06
2023-02-01T02:17:11.798Z,0.04
2023-02-01T02:19:58.266Z,0.05
2023-02-01T02:23:00.304Z,-0.00
2023-02-01T02:25:44.052Z,-0.07
2023-02-01T02:28:12.422Z,-0.10
2023-02-01T02:31:01.537Z,-0.19
2023-02-01T02:34:05.195Z,-0.27
2023-02-01T02:36:35.366Z,-0.35
2023-02-01T02:39:09.551Z,-0.44
2023-02-01T02:42:31.350Z,-0.52
2023-02-01T02:45:42.014Z,-0.55
2023-02-01T02:48:21.765Z,-0.59
2023-02-01T02:51:17.943Z,-0.63
2023-02-01T02:54:25.249Z,-0.66
2023-02-01T02:57:12.423Z,-0.62
2023-02-01T02:59:59.894Z,-0.61
2023-02-01T03:02:47.159Z,-0.62
2023-02-01T03:08:05.158Z,-0.68
2023-02-01T03:10:55.133Z,-0.69
2023-02-01T03:13:39.959Z,-0.70
2023-02-01T03:16:14.818Z,-0.67
2023-02-01T03:19:15.279Z,-0.63
2023-02-01T03:24:34.363Z,-0.59
2023-02-01T03:27:21.133Z,-0.59
2023-02-01T03:30:14.110Z,-0.58
2023-02-01T03:33:01.517Z,-0.58
2023-02-01T03:35:46.816Z,-0.61
2023-02-01T03:38:24.280Z,-0.63
2023-02-01T03:40:59.146Z,-0.66
2023-02-01T03:43:27.655Z,-0.68
2023-02-01T03:46:02.043Z,-0.70
2023-02-01T03:48:30.984Z,-0.73
2023-02-01T03:51:01.492Z,-0.75
2023-02-01T03:53:30.141Z,-0.74
2023-02-01T03:55:58.653Z,-0.74
2023-02-01T03:58:27.121Z,-0.72
2023-02-01T04:00:57.669Z,-0.71
2023-02-01T04:03:26.708Z,-0.70
2023-02-01T04:05:55.332Z,-0.68
2023-02-01T04:08:26.289Z,-0.64
2023-02-01T04:10:54.783Z,-0.61
2023-02-01T04:13:24.657Z,-0.60
2023-02-01T04:15:53.053Z,-0.61
2023-02-01T04:18:21.540Z,-0.62
2023-02-01T04:20:50.251Z,-0.64
2023-02-01T04:23:18.644Z,-0.63
2023-02-01T04:25:46.923Z,-0.60
2023-02-01T04:28:15.560Z,-0.58
2023-02-01T04:30:44.191Z,-0.53
2023-02-01T04:33:15.100Z,-0.49
2023-02-01T04:35:43.762Z,-0.48
2023-02-01T04:38:12.230Z,-0.51
2023-02-01T04:40:40.527Z,-0.47
2023-02-01T04:43:09.299Z,-0.45
2023-02-01T04:45:37.660Z,-0.46
2023-02-01T04:48:06.134Z,-0.48
2023-02-01T04:50:35.018Z,-0.50
2023-02-01T04:53:03.452Z,-0.51
2023-02-01T04:55:31.980Z,-0.53
2023-02-01T04:58:00.630Z,-0.53
2023-02-01T05:00:29.357Z,-0.54
2023-02-01T05:02:57.748Z,-0.53
2023-02-01T05:05:26.723Z,-0.55
2023-02-01T05:07:55.480Z,-0.58
2023-02-01T05:10:24.543Z,-0.62
2023-02-01T05:13:12.129Z,-0.64
2023-02-01T05:15:41.072Z,-0.64
2023-02-01T05:18:09.778Z,-0.61
2023-02-01T05:20:38.805Z,-0.58
2023-02-01T05:23:07.580Z,-0.57
2023-02-01T05:25:36.086Z,-0.57
2023-02-01T05:28:05.329Z,-0.57
2023-02-01T05:30:36.488Z,-0.57
2023-02-01T05:33:04.885Z,-0.57
2023-02-01T05:35:34.289Z,-0.57
2023-02-01T05:38:05.830Z,-0.55
2023-02-01T05:40:35.365Z,-0.56
2023-02-01T05:43:03.871Z,-0.59
2023-02-01T05:45:32.580Z,-0.59
2023-02-01T05:48:01.068Z,-0.60
2023-02-01T05:50:32.058Z,-0.59
2023-02-01T05:53:01.501Z,-0.54
2023-02-01T05:55:29.916Z,-0.49
2023-02-01T05:57:58.846Z,-0.43
2023-02-01T06:00:27.841Z,-0.40
2023-02-01T06:02:56.724Z,-0.40
2023-02-01T06:05:25.242Z,-0.38
2023-02-01T06:07:54.171Z,-0.36
2023-02-01T06:10:23.188Z,-0.33
2023-02-01T10:20:22.623Z,3.84
2023-02-01T10:23:27.289Z,3.88
2023-02-01T10:26:25.265Z,3.89
2023-02-01T10:29:00.599Z,3.88
2023-02-01T10:31:37.877Z,3.87
2023-02-01T10:34:21.930Z,3.85
2023-02-01T10:36:57.751Z,3.75
2023-02-01T10:39:32.265Z,3.68
2023-02-01T10:42:05.040Z,3.56
2023-02-01T10:44:35.034Z,3.48
2023-02-01T10:47:07.675Z,3.41
2023-02-01T10:49:52.712Z,3.32
2023-02-01T10:52:32.805Z,3.11
2023-02-01T10:55:41.442Z,2.91
2023-02-01T10:58:39.462Z,2.82
2023-02-01T11:01:09.537Z,2.87
2023-02-01T11:04:02.367Z,2.76
2023-02-01T11:06:50.906Z,2.63
2023-02-01T11:09:28.532Z,2.52
2023-02-01T11:11:59.413Z,2.50
2023-02-01T11:14:41.859Z,2.46
2023-02-01T11:17:41.902Z,2.38
2023-02-01T11:20:22.798Z,2.21
2023-02-01T11:22:57.854Z,2.07
2023-02-01T11:25:35.131Z,2.01
2023-02-01T11:28:06.088Z,2.00
2023-02-01T11:30:43.055Z,1.99
2023-02-01T11:33:21.529Z,1.92
2023-02-01T11:35:52.619Z,1.87
2023-02-01T11:38:37.513Z,1.81
2023-02-01T11:41:24.211Z,1.68
2023-02-01T11:44:00.983Z,1.46
2023-02-01T11:46:37.149Z,1.26
2023-02-01T11:49:24.179Z,1.16
2023-02-01T11:52:26.628Z,1.13
2023-02-01T11:55:26.489Z,1.12
2023-02-01T11:58:14.925Z,1.13
2023-02-01T12:00:59.705Z,1.11
2023-02-01T12:03:43.552Z,1.10
2023-02-01T12:06:26.818Z,1.04
2023-02-01T12:09:01.452Z,1.03
2023-02-01T12:11:44.639Z,1.03
2023-02-01T12:14:45.720Z,1.00
2023-02-01T12:17:35.574Z,1.02
2023-02-01T12:20:23.065Z,1.15
2023-02-01T12:23:19.648Z,1.27
2023-02-01T12:26:23.824Z,1.38
2023-02-01T12:29:25.677Z,1.49
2023-02-01T12:32:13.806Z,1.41
2023-02-01T12:35:07.485Z,1.25
2023-02-01T12:37:56.274Z,1.17
2023-02-01T12:40:43.278Z,1.13
2023-02-01T12:43:33.741Z,1.04
2023-02-01T12:46:34.443Z,0.96
2023-02-01T12:49:12.382Z,0.85
2023-02-01T12:51:48.357Z,0.81
2023-02-01T12:54:27.904Z,0.82
2023-02-01T12:57:08.304Z,0.78
2023-02-01T12:59:59.423Z,0.69
2023-02-01T13:02:49.463Z,0.58
2023-02-01T13:05:23.185Z,0.45
2023-02-01T13:08:13.409Z,0.37
2023-02-01T13:11:06.003Z,0.13
2023-02-01T13:13:58.239Z,-0.03
2023-02-01T13:16:43.393Z,-0.13
2023-02-01T13:19:50.303Z,-0.24
2023-02-01T13:22:29.134Z,-0.27
2023-02-01T13:25:05.950Z,-0.28
2023-02-01T13:27:40.255Z,-0.29
2023-02-01T13:30:28.284Z,-0.30
2023-02-01T13:33:54.933Z,-0.25
2023-02-01T13:36:46.661Z,-0.17
2023-02-01T13:39:47.582Z,-0.14
2023-02-01T13:42:45.331Z,-0.15
2023-02-01T13:45:39.561Z,-0.20
2023-02-01T13:48:34.947Z,-0.25
2023-02-01T13:51:04.995Z,-0.37
2023-02-01T13:53:38.986Z,-0.44
2023-02-01T13:56:13.810Z,-0.44
2023-02-01T13:58:51.471Z,-0.42
2023-02-01T14:01:29.480Z,-0.43
2023-02-01T14:04:09.217Z,-0.45
2023-02-01T18:14:33.935Z,-2.05
2023-02-01T18:17:02.902Z,-2.04
2023-02-01T18:19:31.487Z,-2.04
2023-02-01T18:21:59.841Z,-2.03
2023-02-01T18:24:28.797Z,-2.01
2023-02-01T18:26:59.727Z,-2.02
2023-02-01T18:29:28.358Z,-2.04
2023-02-01T18:31:56.932Z,-2.06
2023-02-01T18:34:27.335Z,-2.06
2023-02-01T18:36:55.693Z,-2.04
2023-02-01T18:39:24.194Z,-1.99
2023-02-01T18:41:52.579Z,-1.98
2023-02-01T18:44:21.030Z,-2.02
2023-02-01T18:46:50.311Z,-2.06
2023-02-01T18:49:20.086Z,-2.06
2023-02-01T18:51:48.897Z,-2.03
2023-02-01T18:54:17.285Z,-2.02
2023-02-01T18:56:46.288Z,-1.99
2023-02-01T18:59:17.604Z,-1.95
2023-02-01T19:01:46.084Z,-1.90
2023-02-01T19:04:18.931Z,-1.89
2023-02-01T19:06:50.323Z,-1.87
2023-02-01T19:09:22.350Z,-1.83
2023-02-01T19:11:50.932Z,-1.80
2023-02-01T19:14:19.555Z,-1.79
2023-02-01T19:16:48.224Z,-1.78
2023-02-01T19:19:16.634Z,-1.79
2023-02-01T19:21:45.197Z,-1.79
2023-02-01T19:24:13.860Z,-1.79
2023-02-01T19:26:43.992Z,-1.77
2023-02-01T19:29:12.535Z,-1.75
2023-02-01T19:31:41.271Z,-1.70
2023-02-01T19:34:11.031Z,-1.68
2023-02-01T19:36:42.604Z,-1.65
2023-02-01T19:39:11.425Z,-1.64
2023-02-01T19:41:39.884Z,-1.62
2023-02-01T19:44:08.390Z,-1.58
2023-02-01T19:46:38.733Z,-1.53
2023-02-01T19:49:12.157Z,-1.50
2023-02-01T19:51:42.047Z,-1.48
2023-02-01T19:54:11.484Z,-1.47
2023-02-01T19:56:40.165Z,-1.45
2023-02-01T19:59:08.912Z,-1.42
2023-02-01T20:01:38.337Z,-1.37
2023-02-01T20:04:07.946Z,-1.33
2023-02-01T20:06:38.330Z,-1.28
2023-02-01T20:09:08.904Z,-1.26
2023-02-01T20:11:37.777Z,-1.26
2023-02-01T20:14:07.682Z,-1.25
2023-02-01T20:16:36.558Z,-1.25
2023-02-01T20:19:06.132Z,-1.25
2023-02-01T20:21:36.124Z,-1.23
2023-02-01T20:24:05.460Z,-1.26
2023-02-01T20:26:34.839Z,-1.28
2023-02-01T20:29:03.334Z,-1.30
2023-02-01T20:31:32.307Z,-1.32
2023-02-01T20:34:01.127Z,-1.34
2023-02-01T20:36:30.692Z,-1.31
2023-02-01T20:38:59.214Z,-1.26
2023-02-01T20:41:27.542Z,-1.20
2023-02-01T20:43:56.006Z,-1.17
2023-02-01T20:46:24.855Z,-1.13
2023-02-01T20:48:53.330Z,-1.11
2023-02-01T20:51:21.947Z,-1.08
2023-02-01T20:53:54.162Z,-1.06
2023-02-01T20:56:23.664Z,-1.05
2023-02-01T20:58:52.240Z,-1.04
2023-02-01T21:01:20.640Z,-1.06
2023-02-01T21:03:49.064Z,-1.08
2023-02-01T21:06:17.529Z,-1.09
2023-02-01T21:08:46.341Z,-1.12
2023-02-01T21:11:16.091Z,-1.13
2023-02-01T21:13:50.857Z,-1.15
2023-02-01T21:16:21.624Z,-1.16
2023-02-01T21:18:51.279Z,-1.17
2023-02-01T21:21:19.684Z,-1.20
2023-02-01T21:23:52.990Z,-1.23
2023-02-01T21:26:22.809Z,-1.26
2023-02-01T21:28:52.360Z,-1.28
2023-02-01T21:31:22.481Z,-1.29
2023-02-01T21:33:51.371Z,-1.30
2023-02-01T21:36:20.111Z,-1.29
2023-02-01T21:38:52.094Z,-1.28
2023-02-01T21:41:40.687Z,-1.26
2023-02-01T21:44:09.566Z,-1.26
2023-02-01T21:46:38.183Z,-1.27
2023-02-01T21:49:07.521Z,-1.27
2023-02-01T21:51:38.407Z,-1.27
2023-02-01T21:54:07.693Z,-1.25
2023-02-01T21:56:37.085Z,-1.23
2023-02-01T21:59:05.585Z,-1.23
2023-02-01T22:01:34.028Z,-1.22
2023-02-01T22:04:02.429Z,-1.20
2023-02-01T22:06:33.301Z,-1.20
2023-02-01T22:09:01.795Z,-1.20
2023-02-01T22:11:30.656Z,-1.21
2023-02-01T22:13:59.135Z,-1.20
2023-02-01T22:16:27.506Z,-1.19
2023-02-01T22:18:55.974Z,-1.17
2023-02-01T22:21:24.806Z,-1.16
2023-02-01T22:23:54.548Z,-1.15
2023-02-01T22:26:22.999Z,-1.15
2023-02-01T22:28:51.559Z,-1.17
2023-02-01T22:31:20.171Z,-1.17
2023-02-01T22:33:49.460Z,-1.18
2023-02-01T22:36:17.991Z,-1.19
2023-02-01T22:38:46.997Z,-1.20
2023-02-01T22:41:15.434Z,-1.22
2023-02-01T22:43:44.603Z,-1.26
2023-02-01T22:46:15.085Z,-1.30
2023-02-01T22:48:47.252Z,-1.31
2023-02-01T22:51:22.035Z,-1.30
2023-02-01T22:53:57.313Z,-1.28
2023-02-01T22:56:37.553Z,-1.29
2023-02-01T22:59:07.546Z,-1.30
2023-02-01T23:01:35.961Z,-1.28
2023-02-01T23:04:05.825Z,-1.28
2023-02-01T23:06:35.198Z,-1.26
2023-02-01T23:09:14.548Z,-1.24
2023-02-01T23:11:43.503Z,-1.25
2023-02-01T23:14:12.344Z,-1.26
2023-02-01T23:16:41.614Z,-1.25
2023-02-01T23:19:10.012Z,-1.23
2023-02-01T23:21:38.747Z,-1.23
2023-02-01T23:24:08.451Z,-1.26
2023-02-01T23:26:39.270Z,-1.29
2023-02-01T23:29:08.034Z,-1.31
2023-02-01T23:31:36.642Z,-1.31
2023-02-01T23:34:05.529Z,-1.30
2023-02-01T23:36:35.550Z,-1.27
2023-02-01T23:39:04.236Z,-1.26
2023-02-01T23:41:34.896Z,-1.23
2023-02-01T23:44:03.492Z,-1.21
2023-02-01T23:46:37.380Z,-1.19
2023-02-01T23:49:07.638Z,-1.18
2023-02-01T23:51:36.693Z,-1.16
2023-02-01T23:54:05.932Z,-1.15
2023-02-01T23:56:36.526Z,-1.13
2023-02-01T23:59:15.311Z,-1.12
